Airports United Kingdom Bournemouth Airport

Bournemouth Airport (EGHH / BOH)

Facts about Bournemouth Airport

Name Bournemouth Airport
City Bournemouth
Country United Kingdom
ICAO code EGHH
IATA code BOH
Elevation 11.5824 meters (38 feet)

Weather

METAR

Metar data retrieved Saturday, 20 July 2024 at 00:55 UTC (12 minutes ago)

EGHH 192250Z 26005KT 9999 SCT007 17/17 Q1013

Live traffic

Navigraph Charts (account required)